Time;durP1;ratioP1;P1;durP2;ratioP2;P2;SDS_P1;SDS_P2;PMS_P1;PMS_P2;Temp;Humidity;BMP_temperature;BMP_pressure;BME280_temperature;BME280_humidity;BME280_pressure;Samples;Min_cycle;Max_cycle;Signal;HPM_P1;HPM_P2
2023/08/07 00:02:08;;;;;;;1.20;1.10;;;;;;;26.29;100.00;98227.47;109104;1253;71508;-52
2023/08/07 00:04:36;;;;;;;3.60;1.40;;;;;;;26.28;100.00;98218.38;106753;1258;60453;-52
2023/08/07 00:07:03;;;;;;;1.90;1.20;;;;;;;26.26;100.00;98213.61;104759;1254;62060;-52
2023/08/07 00:09:31;;;;;;;2.80;1.20;;;;;;;26.25;100.00;98208.23;105091;1255;73822;-51
2023/08/07 00:11:58;;;;;;;5.60;1.20;;;;;;;26.24;100.00;98204.16;104918;1254;67007;-51
2023/08/07 00:14:25;;;;;;;2.80;1.30;;;;;;;26.22;100.00;98200.49;104675;1259;71741;-52
2023/08/07 00:16:53;;;;;;;1.30;1.20;;;;;;;26.19;100.00;98194.27;104656;1254;60563;-52
2023/08/07 00:19:20;;;;;;;1.40;1.30;;;;;;;26.17;100.00;98182.98;105026;1259;60491;-50
2023/08/07 00:21:47;;;;;;;3.90;1.50;;;;;;;26.15;100.00;98176.14;104901;1254;72578;-50
2023/08/07 00:24:14;;;;;;;2.20;1.20;;;;;;;26.11;100.00;98169.65;104945;1256;65476;-51
2023/08/07 00:26:42;;;;;;;4.90;1.30;;;;;;;26.06;100.00;98164.73;104824;1253;71182;-51
2023/08/07 00:29:09;;;;;;;3.90;1.60;;;;;;;26.03;100.00;98162.11;104799;1257;60536;-51
2023/08/07 00:31:36;;;;;;;3.80;1.30;;;;;;;25.99;100.00;98162.10;104937;1254;61044;-50
2023/08/07 00:34:04;;;;;;;4.60;2.10;;;;;;;25.96;100.00;98164.29;105039;1259;74923;-50
2023/08/07 00:36:34;;;;;;;2.80;1.20;;;;;;;25.92;100.00;98161.27;104890;1259;65512;-52
2023/08/07 00:39:05;;;;;;;5.10;1.30;;;;;;;25.88;100.00;98152.10;104705;1253;71456;-52
2023/08/07 00:41:33;;;;;;;7.30;1.20;;;;;;;25.85;100.00;98154.02;104841;1258;61484;-53
2023/08/07 00:44:00;;;;;;;1.90;1.40;;;;;;;25.82;100.00;98150.54;104782;1257;60651;-53
2023/08/07 00:46:28;;;;;;;1.50;1.30;;;;;;;25.80;100.00;98148.61;105014;1253;75248;-52
2023/08/07 00:48:55;;;;;;;2.00;1.20;;;;;;;25.78;100.00;98145.04;105082;1253;67540;-52
2023/08/07 00:51:23;;;;;;;2.10;1.10;;;;;;;25.75;100.00;98143.45;104519;1257;73162;-52
2023/08/07 00:53:50;;;;;;;2.10;1.20;;;;;;;25.71;100.00;98138.84;104814;1258;60550;-53
2023/08/07 00:56:17;;;;;;;2.00;1.20;;;;;;;25.68;100.00;98137.71;105302;1258;60753;-52
2023/08/07 00:58:45;;;;;;;3.10;1.40;;;;;;;25.65;100.00;98131.63;105010;1253;75957;-51
2023/08/07 01:01:12;;;;;;;2.20;1.30;;;;;;;25.63;100.00;98126.91;105025;1259;66742;-50
2023/08/07 01:03:39;;;;;;;1.10;1.00;;;;;;;25.60;100.00;98120.85;105680;1258;70892;-52
2023/08/07 01:06:07;;;;;;;4.80;1.70;;;;;;;25.57;100.00;98113.39;105182;1259;60536;-50
2023/08/07 01:08:35;;;;;;;4.30;1.30;;;;;;;25.53;100.00;98104.27;104952;1253;60455;-52
2023/08/07 01:11:28;;;;;;;3.20;1.30;;;;;;;25.50;100.00;98101.48;104711;1255;73103;-52
2023/08/07 01:14:11;;;;;;;2.30;1.60;;;;;;;25.47;100.00;98098.41;105144;1253;65479;-52
2023/08/07 01:16:52;;;;;;;4.20;1.40;;;;;;;25.43;100.00;98094.97;105005;1257;71400;-53
2023/08/07 01:19:25;;;;;;;3.60;1.80;;;;;;;25.36;100.00;98090.16;108132;1254;60064;-52
2023/08/07 01:22:08;;;;;;;2.70;1.30;;;;;;;25.32;100.00;98068.73;105720;1265;60778;-51
2023/08/07 01:24:36;;;;;;;1.40;1.30;;;;;;;25.27;100.00;98057.05;105026;1253;72595;-52
2023/08/07 01:27:28;;;;;;;3.80;1.50;;;;;;;25.24;100.00;98050.31;104603;1257;66993;-49
2023/08/07 01:30:14;;;;;;;4.20;2.10;;;;;;;25.20;100.00;98039.33;105105;1259;73677;-53
2023/08/07 01:33:22;;;;;;;2.30;1.50;;;;;;;25.15;100.00;98032.80;105096;1253;60498;-50
2023/08/07 01:35:52;;;;;;;2.60;1.40;;;;;;;25.12;100.00;98031.25;104899;1265;60423;-51
2023/08/07 01:38:20;;;;;;;1.70;1.20;;;;;;;25.09;100.00;98025.21;105508;1259;72631;-50
2023/08/07 01:40:48;;;;;;;3.40;2.10;;;;;;;25.07;100.00;98028.11;104761;1257;66769;-51
2023/08/07 01:43:16;;;;;;;2.80;1.20;;;;;;;25.05;100.00;98036.96;104968;1257;72556;-51
2023/08/07 01:45:43;;;;;;;3.80;1.70;;;;;;;25.04;100.00;98037.67;104799;1257;60543;-51
2023/08/07 01:48:11;;;;;;;1.60;1.50;;;;;;;25.03;100.00;98037.45;104863;1253;63071;-51
2023/08/07 01:50:39;;;;;;;4.10;1.70;;;;;;;25.02;100.00;98028.67;104920;1258;73780;-50
2023/08/07 01:53:06;;;;;;;1.40;1.30;;;;;;;25.01;100.00;98022.24;105031;1256;66764;-51
2023/08/07 01:55:33;;;;;;;2.20;1.30;;;;;;;25.00;100.00;98025.77;104882;1258;73316;-48
2023/08/07 01:58:00;;;;;;;2.60;1.60;;;;;;;24.97;100.00;98022.66;104957;1255;60594;-53
2023/08/07 02:00:28;;;;;;;1.80;1.60;;;;;;;24.93;100.00;98025.34;104968;1256;60662;-50
2023/08/07 02:02:55;;;;;;;3.20;1.30;;;;;;;24.90;100.00;98024.45;104898;1257;72659;-51
2023/08/07 02:05:23;;;;;;;3.00;1.60;;;;;;;24.87;100.00;98022.46;105396;1258;67830;-51
2023/08/07 02:07:50;;;;;;;3.40;1.50;;;;;;;24.83;100.00;98027.02;104688;1261;71461;-51
2023/08/07 02:10:20;;;;;;;1.90;1.70;;;;;;;24.80;100.00;98025.63;105009;1257;61711;-50
2023/08/07 02:12:48;;;;;;;2.10;1.80;;;;;;;24.78;100.00;98022.94;104801;1259;60492;-50
2023/08/07 02:15:15;;;;;;;1.70;1.40;;;;;;;24.77;100.00;98017.27;105480;1254;73862;-49
2023/08/07 02:17:44;;;;;;;1.40;1.30;;;;;;;24.76;100.00;98020.93;106616;1257;66622;-51
2023/08/07 02:20:11;;;;;;;2.50;1.40;;;;;;;24.77;100.00;98019.89;105142;1259;72687;-49
2023/08/07 02:22:39;;;;;;;2.90;1.60;;;;;;;24.79;100.00;98019.73;104913;1257;60547;-51
2023/08/07 02:25:07;;;;;;;6.30;2.10;;;;;;;24.79;100.00;98016.90;104924;1259;60584;-50
2023/08/07 02:27:34;;;;;;;4.10;1.50;;;;;;;24.81;100.00;98016.35;104993;1257;72629;-50
2023/08/07 02:30:03;;;;;;;2.00;1.80;;;;;;;24.80;100.00;98021.52;104878;1257;66803;-48
2023/08/07 02:32:31;;;;;;;2.30;2.00;;;;;;;24.79;100.00;98018.55;104921;1255;71221;-50
2023/08/07 02:34:58;;;;;;;5.30;2.10;;;;;;;24.76;100.00;98016.38;105039;1253;60499;-49
2023/08/07 02:37:25;;;;;;;1.60;1.50;;;;;;;24.73;100.00;98019.11;104948;1253;60614;-49
2023/08/07 02:39:53;;;;;;;2.60;2.40;;;;;;;24.69;100.00;98022.93;104871;1257;73863;-49
2023/08/07 02:42:21;;;;;;;4.90;2.00;;;;;;;24.66;100.00;98016.89;109017;1254;65660;-51
2023/08/07 02:44:48;;;;;;;3.30;1.20;;;;;;;24.64;100.00;98017.55;109107;1254;72419;-53
2023/08/07 02:47:15;;;;;;;1.40;1.30;;;;;;;24.62;100.00;98015.41;109207;1255;61784;-49
2023/08/07 02:49:43;;;;;;;4.20;1.70;;;;;;;24.61;100.00;98001.58;109102;1259;58725;-50
2023/08/07 02:52:10;;;;;;;4.00;1.50;;;;;;;24.62;100.00;97992.69;109214;1257;72554;-51
2023/08/07 02:54:37;;;;;;;3.80;2.00;;;;;;;24.63;100.00;97987.38;109170;1254;66935;-54
2023/08/07 02:57:05;;;;;;;1.80;1.60;;;;;;;24.65;100.00;97985.91;109134;1258;71458;-50
2023/08/07 03:02:34;;;;;;;2.70;1.80;;;;;;;24.66;100.00;98000.39;101891;1292;601272;-49
2023/08/07 03:05:02;;;;;;;6.10;2.20;;;;;;;24.64;100.00;98009.51;104061;1267;60104;-48
2023/08/07 03:07:29;;;;;;;8.50;2.10;;;;;;;24.61;100.00;98007.98;104427;1270;59283;-49
2023/08/07 03:09:57;;;;;;;2.40;1.60;;;;;;;24.59;100.00;98011.55;104115;1272;70942;-49
2023/08/07 03:12:24;;;;;;;2.80;1.70;;;;;;;24.56;100.00;98018.58;104169;1267;65685;-50
2023/08/07 03:14:52;;;;;;;1.90;1.70;;;;;;;24.54;100.00;98017.08;104626;1267;72570;-53
2023/08/07 03:17:20;;;;;;;3.80;1.80;;;;;;;24.51;100.00;98013.72;104227;1264;603591;-48
2023/08/07 03:19:49;;;;;;;3.70;1.70;;;;;;;24.49;100.00;98007.58;105565;1261;59532;-50
2023/08/07 03:22:16;;;;;;;4.00;1.90;;;;;;;24.48;100.00;98005.59;104581;1260;72219;-51
2023/08/07 03:24:47;;;;;;;2.10;2.00;;;;;;;24.47;100.00;98008.17;104592;1257;67893;-51
2023/08/07 03:27:15;;;;;;;5.30;2.20;;;;;;;24.48;100.00;98009.95;104432;1258;71247;-49
2023/08/07 03:29:43;;;;;;;3.30;1.90;;;;;;;24.50;100.00;98013.88;104688;1263;60117;-49
2023/08/07 03:32:12;;;;;;;3.50;2.40;;;;;;;24.51;100.00;98013.76;104629;1254;60078;-52
2023/08/07 03:34:40;;;;;;;4.70;2.10;;;;;;;24.51;100.00;98009.78;104553;1256;73464;-51
2023/08/07 03:37:08;;;;;;;3.30;1.80;;;;;;;24.51;100.00;98003.09;104877;1260;65900;-51
2023/08/07 03:39:35;;;;;;;2.50;2.30;;;;;;;24.50;100.00;98002.25;104568;1263;71551;-52
2023/08/07 03:42:03;;;;;;;3.40;2.70;;;;;;;24.49;100.00;98009.36;104675;1257;61783;-50
2023/08/07 03:44:30;;;;;;;3.30;1.70;;;;;;;24.50;100.00;98010.08;105520;1255;59616;-51
2023/08/07 03:46:58;;;;;;;5.10;2.80;;;;;;;24.50;100.00;98007.10;104537;1257;73056;-51
2023/08/07 03:49:26;;;;;;;5.00;2.20;;;;;;;24.50;100.00;98002.80;104919;1260;66895;-50
2023/08/07 03:51:53;;;;;;;6.60;2.40;;;;;;;24.52;100.00;97999.13;104719;1257;72613;-51
2023/08/07 03:54:21;;;;;;;4.10;2.80;;;;;;;24.55;100.00;97994.95;104961;1263;62214;-51
2023/08/07 03:56:51;;;;;;;3.40;2.60;;;;;;;24.57;100.00;97991.67;104994;1257;60076;-49
2023/08/07 03:59:18;;;;;;;2.20;2.00;;;;;;;24.59;100.00;97990.10;104398;1257;73704;-53
2023/08/07 04:01:46;;;;;;;5.90;3.10;;;;;;;24.61;100.00;97994.42;104888;1256;67385;-50
2023/08/07 04:04:14;;;;;;;2.50;2.30;;;;;;;24.63;100.00;97988.94;105469;1262;72015;-49
2023/08/07 04:06:42;;;;;;;3.20;2.50;;;;;;;24.65;100.00;97986.03;104539;1259;60059;-49
2023/08/07 04:09:10;;;;;;;3.40;2.50;;;;;;;24.66;100.00;97982.41;104651;1257;60426;-51
2023/08/07 04:11:37;;;;;;;3.00;2.60;;;;;;;24.67;100.00;97983.36;104685;1264;72460;-48
2023/08/07 04:14:05;;;;;;;5.50;2.90;;;;;;;24.68;100.00;97983.83;104693;1262;67597;-50
2023/08/07 04:16:32;;;;;;;7.70;2.60;;;;;;;24.67;100.00;97983.83;104649;1263;71833;-52
2023/08/07 04:18:59;;;;;;;5.20;2.50;;;;;;;24.67;100.00;97984.58;104637;1261;60464;-52
2023/08/07 04:21:27;;;;;;;2.30;2.10;;;;;;;24.68;100.00;97984.51;104568;1263;60497;-49
2023/08/07 04:23:54;;;;;;;3.00;2.60;;;;;;;24.70;100.00;97990.27;104566;1258;71878;-47
2023/08/07 04:26:21;;;;;;;3.50;2.10;;;;;;;24.73;100.00;97992.06;104753;1263;66374;-49
2023/08/07 04:28:48;;;;;;;4.50;2.30;;;;;;;24.77;100.00;97984.50;104672;1266;73377;-51
2023/08/07 04:31:16;;;;;;;5.20;3.10;;;;;;;24.82;100.00;97989.02;104597;1260;59714;-49
2023/08/07 04:33:43;;;;;;;2.90;2.70;;;;;;;24.85;100.00;97990.06;105023;1258;59675;-48
2023/08/07 04:36:11;;;;;;;7.20;3.00;;;;;;;24.88;100.00;97991.45;104456;1264;72979;-48
2023/08/07 04:38:38;;;;;;;3.90;2.30;;;;;;;24.92;100.00;97988.20;104659;1263;65594;-52
2023/08/07 04:41:05;;;;;;;4.30;2.90;;;;;;;24.97;100.00;97991.80;104628;1262;73553;-53
2023/08/07 04:43:33;;;;;;;11.30;2.70;;;;;;;25.02;100.00;97987.86;104491;1264;60019;-48
2023/08/07 04:46:00;;;;;;;4.50;2.40;;;;;;;25.06;100.00;97986.57;104393;1257;60915;-52
2023/08/07 04:48:28;;;;;;;4.80;3.10;;;;;;;25.09;100.00;97985.39;104674;1258;74095;-52
2023/08/07 04:50:56;;;;;;;3.30;2.20;;;;;;;25.11;100.00;97984.11;105216;1264;68649;-50
2023/08/07 04:53:23;;;;;;;5.30;1.80;;;;;;;25.16;100.00;97984.85;104579;1262;70837;-50
2023/08/07 04:55:50;;;;;;;6.00;2.50;;;;;;;25.20;100.00;97988.63;104712;1263;60382;-52
2023/08/07 04:58:18;;;;;;;4.10;2.20;;;;;;;25.26;100.00;97984.19;104832;1258;60071;-49
2023/08/07 05:00:45;;;;;;;6.60;2.30;;;;;;;25.31;100.00;97977.89;104752;1263;71853;-49
2023/08/07 05:03:13;;;;;;;4.20;2.20;;;;;;;25.36;100.00;97983.98;104704;1257;65542;-53
2023/08/07 05:05:40;;;;;;;5.70;2.60;;;;;;;25.43;100.00;97982.34;104600;1260;71872;-47
2023/08/07 05:08:08;;;;;;;6.00;1.90;;;;;;;25.49;100.00;97980.57;104611;1261;60091;-52
2023/08/07 05:10:35;;;;;;;3.50;2.30;;;;;;;25.54;100.00;97989.80;104727;1257;60037;-50
2023/08/07 05:13:02;;;;;;;2.40;1.60;;;;;;;25.59;100.00;98002.38;104759;1258;73540;-51
2023/08/07 05:15:31;;;;;;;3.70;2.40;;;;;;;25.61;100.00;98006.96;104780;1258;67335;-50
2023/08/07 05:17:58;;;;;;;2.40;2.20;;;;;;;25.65;100.00;98007.77;104433;1257;72690;-49
2023/08/07 05:20:25;;;;;;;3.40;1.90;;;;;;;25.69;100.00;98003.39;104221;1260;61731;-49
2023/08/07 05:22:53;;;;;;;6.00;1.80;;;;;;;25.73;100.00;98006.53;104527;1258;59776;-49
2023/08/07 05:25:21;;;;;;;3.50;1.50;;;;;;;25.78;100.00;98009.08;108318;1257;73020;-49
2023/08/07 05:27:48;;;;;;;4.70;1.90;;;;;;;25.81;100.00;98009.89;104633;1263;65641;-53
2023/08/07 05:30:16;;;;;;;3.90;1.70;;;;;;;25.85;100.00;98020.96;105895;1257;72700;-48
2023/08/07 05:32:44;;;;;;;6.60;1.60;;;;;;;25.86;100.00;98024.89;104480;1257;59727;-48
2023/08/07 05:35:11;;;;;;;4.90;1.90;;;;;;;25.85;100.00;98027.96;104637;1260;59771;-49
2023/08/07 05:37:38;;;;;;;4.80;1.90;;;;;;;25.86;100.00;98034.43;104741;1264;73126;-49
2023/08/07 05:40:06;;;;;;;7.20;1.80;;;;;;;25.87;100.00;98032.05;104473;1262;67998;-50
2023/08/07 05:42:34;;;;;;;4.00;1.50;;;;;;;25.87;100.00;98035.23;104595;1265;71491;-47
2023/08/07 05:45:03;;;;;;;3.90;2.00;;;;;;;25.85;100.00;98034.23;108715;1257;61815;-48
2023/08/07 05:47:32;;;;;;;3.20;1.70;;;;;;;25.83;100.00;98029.69;108920;1254;58741;-51
2023/08/07 05:49:59;;;;;;;2.70;2.00;;;;;;;25.81;100.00;98022.64;108893;1254;73100;-50
2023/08/07 05:52:26;;;;;;;4.90;1.60;;;;;;;25.80;100.00;98038.45;108962;1254;67604;-49
2023/08/07 05:54:54;;;;;;;2.60;1.70;;;;;;;25.79;100.00;98037.02;108935;1254;72773;-51
2023/08/07 05:57:21;;;;;;;5.60;1.20;;;;;;;25.82;100.00;98032.40;108986;1254;60508;-50
2023/08/07 05:59:48;;;;;;;6.30;1.60;;;;;;;25.88;100.00;98025.91;108916;1253;58761;-50
2023/08/07 06:02:16;;;;;;;3.40;1.50;;;;;;;25.94;100.00;98026.45;108841;1257;72989;-52
2023/08/07 06:04:43;;;;;;;4.80;1.90;;;;;;;26.00;100.00;98001.05;108894;1256;65935;-52
2023/08/07 06:07:10;;;;;;;4.20;2.40;;;;;;;26.06;100.00;97999.30;108757;1257;71732;-52
2023/08/07 06:09:38;;;;;;;2.70;2.50;;;;;;;26.14;100.00;98018.46;108854;1260;60163;-51
2023/08/07 06:12:06;;;;;;;2.20;1.70;;;;;;;26.19;100.00;98029.44;108081;1257;60006;-50
2023/08/07 06:14:33;;;;;;;3.20;1.70;;;;;;;26.19;100.00;98044.14;104631;1257;72296;-49
2023/08/07 06:17:01;;;;;;;3.80;1.50;;;;;;;26.20;100.00;98037.58;104420;1257;66484;-50
2023/08/07 06:19:29;;;;;;;2.40;2.00;;;;;;;26.22;100.00;98040.08;104471;1258;71374;-52
2023/08/07 06:21:59;;;;;;;3.70;1.40;;;;;;;26.21;100.00;98040.20;104737;1257;61689;-52
2023/08/07 06:24:28;;;;;;;1.70;1.40;;;;;;;26.19;100.00;98029.67;105490;1256;59740;-49
2023/08/07 06:26:56;;;;;;;4.30;2.40;;;;;;;26.13;100.00;98028.59;105161;1257;73169;-48
2023/08/07 06:29:23;;;;;;;2.80;1.80;;;;;;;26.07;100.00;98022.50;104861;1260;66282;-52
2023/08/07 06:31:50;;;;;;;2.00;1.70;;;;;;;26.02;100.00;98035.87;104709;1258;71437;-51
2023/08/07 06:34:18;;;;;;;3.00;2.00;;;;;;;25.96;100.00;98034.04;104740;1260;59746;-52
2023/08/07 06:36:47;;;;;;;2.30;1.90;;;;;;;25.92;100.00;98055.21;104838;1256;59643;-52
2023/08/07 06:39:16;;;;;;;4.60;2.10;;;;;;;25.89;100.00;98048.73;104714;1258;73921;-50
2023/08/07 06:41:43;;;;;;;6.90;1.80;;;;;;;25.88;100.00;98030.45;104944;1261;67261;-49
2023/08/07 06:44:12;;;;;;;3.30;1.80;;;;;;;25.87;100.00;98036.29;104507;1262;72632;-53
2023/08/07 06:46:39;;;;;;;5.40;1.80;;;;;;;25.84;100.00;98038.34;104594;1256;60103;-48
2023/08/07 06:49:06;;;;;;;5.50;2.20;;;;;;;25.82;100.00;98045.13;104641;1257;61794;-53
2023/08/07 06:51:34;;;;;;;6.20;1.80;;;;;;;25.79;100.00;98045.66;104610;1257;74923;-53
2023/08/07 06:54:01;;;;;;;6.90;2.30;;;;;;;25.78;100.00;98047.91;104623;1260;65500;-49
2023/08/07 06:56:28;;;;;;;4.60;2.30;;;;;;;25.79;100.00;98046.94;104663;1257;72755;-51
2023/08/07 06:58:56;;;;;;;3.30;1.60;;;;;;;25.81;100.00;98051.90;104667;1255;61720;-47
2023/08/07 07:01:23;;;;;;;2.70;1.70;;;;;;;25.85;100.00;98060.17;104400;1257;60563;-50
2023/08/07 07:03:52;;;;;;;2.40;1.60;;;;;;;25.89;100.00;98058.81;104651;1257;71738;-51
2023/08/07 07:06:20;;;;;;;4.10;2.10;;;;;;;25.92;100.00;98057.34;105105;1257;68917;-49
2023/08/07 07:08:48;;;;;;;3.60;2.10;;;;;;;25.94;100.00;98056.15;104888;1262;71187;-50
2023/08/07 07:11:15;;;;;;;3.80;1.50;;;;;;;25.94;100.00;98067.82;104671;1256;60454;-52
2023/08/07 07:13:43;;;;;;;3.60;1.90;;;;;;;25.93;100.00;98071.88;105276;1258;60608;-51
2023/08/07 07:16:11;;;;;;;2.00;1.90;;;;;;;25.92;100.00;98074.77;104858;1260;73761;-50
2023/08/07 07:18:39;;;;;;;2.40;1.70;;;;;;;25.94;100.00;98073.91;105127;1260;65637;-49
2023/08/07 07:21:06;;;;;;;5.10;1.70;;;;;;;25.98;100.00;98077.23;104681;1257;71630;-48
2023/08/07 07:23:34;;;;;;;3.60;1.40;;;;;;;26.05;100.00;98077.22;104556;1263;61740;-50
2023/08/07 07:26:01;;;;;;;5.80;1.40;;;;;;;26.12;100.00;98074.76;104767;1255;60460;-51
2023/08/07 07:28:28;;;;;;;2.20;2.00;;;;;;;26.17;100.00;98073.40;104749;1256;72668;-52
2023/08/07 07:30:56;;;;;;;2.80;1.60;;;;;;;26.22;100.00;98077.45;104675;1256;66281;-51
2023/08/07 07:33:23;;;;;;;2.20;2.00;;;;;;;26.25;100.00;98079.51;104862;1258;71507;-50
2023/08/07 07:35:51;;;;;;;6.00;2.10;;;;;;;26.26;100.00;98088.39;104601;1259;60543;-52
2023/08/07 07:38:18;;;;;;;5.70;2.50;;;;;;;26.26;100.00;98092.30;104533;1254;59666;-49
2023/08/07 07:40:45;;;;;;;8.70;2.10;;;;;;;26.23;100.00;98101.48;104655;1259;73916;-49
2023/08/07 07:43:13;;;;;;;3.30;2.50;;;;;;;26.21;100.00;98099.39;104089;1256;67418;-48
2023/08/07 07:45:40;;;;;;;1.90;1.70;;;;;;;26.19;100.00;98104.89;104541;1256;71391;-50
2023/08/07 07:48:08;;;;;;;2.30;1.60;;;;;;;26.20;100.00;98108.31;104693;1260;60594;-49
2023/08/07 07:50:35;;;;;;;3.70;2.30;;;;;;;26.26;100.00;98106.64;104682;1257;60528;-49
2023/08/07 07:53:02;;;;;;;2.20;2.00;;;;;;;26.33;100.00;98105.27;104639;1254;74543;-50
2023/08/07 07:55:30;;;;;;;2.20;2.00;;;;;;;26.42;100.00;98106.33;104806;1254;66357;-50
2023/08/07 07:58:00;;;;;;;4.30;1.80;;;;;;;26.53;100.00;98111.45;105093;1256;71551;-49
2023/08/07 08:00:28;;;;;;;7.80;2.90;;;;;;;26.60;100.00;98113.89;104663;1254;61804;-49
2023/08/07 08:02:55;;;;;;;2.70;1.70;;;;;;;26.65;100.00;98109.41;104894;1254;60606;-53
2023/08/07 08:05:23;;;;;;;3.10;2.00;;;;;;;26.68;100.00;98116.39;105614;1256;73820;-49
2023/08/07 08:07:50;;;;;;;6.90;1.60;;;;;;;26.71;100.00;98118.50;105671;1254;67735;-48
2023/08/07 08:10:18;;;;;;;2.60;2.40;;;;;;;26.73;100.00;98113.05;105088;1254;72784;-50
2023/08/07 08:12:46;;;;;;;1.80;1.60;;;;;;;26.73;100.00;98106.73;105701;1256;61102;-52
2023/08/07 08:15:13;;;;;;;3.60;1.70;;;;;;;26.74;100.00;98102.60;105690;1254;61645;-50
2023/08/07 08:17:41;;;;;;;3.80;2.30;;;;;;;26.73;100.00;98102.65;104940;1254;73830;-49
2023/08/07 08:20:09;;;;;;;1.50;1.30;;;;;;;26.73;100.00;98094.23;105913;1253;66903;-47
2023/08/07 08:22:36;;;;;;;2.90;2.10;;;;;;;26.77;100.00;98089.52;104975;1259;72455;-52
2023/08/07 08:25:04;;;;;;;4.00;1.80;;;;;;;26.83;100.00;98093.75;104920;1260;62111;-49
2023/08/07 08:27:32;;;;;;;4.80;1.70;;;;;;;26.90;100.00;98103.39;105045;1254;60578;-50
2023/08/07 08:29:59;;;;;;;5.60;2.00;;;;;;;26.97;100.00;98108.69;104942;1254;72595;-49
2023/08/07 08:32:26;;;;;;;3.20;1.50;;;;;;;27.01;100.00;98112.53;104956;1254;67170;-50
2023/08/07 08:34:54;;;;;;;4.10;1.90;;;;;;;27.03;100.00;98124.27;109081;1254;71489;-51
2023/08/07 08:37:21;;;;;;;2.40;1.70;;;;;;;27.05;100.00;98138.86;109119;1253;58768;-52
2023/08/07 08:39:49;;;;;;;3.00;2.40;;;;;;;27.08;100.00;98142.50;109132;1253;59354;-53
2023/08/07 08:42:19;;;;;;;1.90;1.70;;;;;;;27.09;100.00;98136.30;109112;1253;72984;-53
2023/08/07 08:44:50;;;;;;;2.80;2.50;;;;;;;27.07;100.00;98167.82;109066;1254;66854;-53
2023/08/07 08:47:17;;;;;;;2.40;2.00;;;;;;;27.03;100.00;98187.52;109084;1254;72691;-52
2023/08/07 08:49:47;;;;;;;4.00;2.30;;;;;;;26.97;100.00;98176.14;108874;1256;60379;-52
2023/08/07 08:52:14;;;;;;;3.10;2.70;;;;;;;26.88;100.00;98170.52;108951;1252;58940;-52
2023/08/07 08:54:41;;;;;;;3.60;3.40;;;;;;;26.78;100.00;98168.94;108688;1253;73815;-52
2023/08/07 08:57:09;;;;;;;6.80;3.90;;;;;;;26.65;100.00;98180.06;108985;1254;66824;-54
2023/08/07 09:02:18;;;;;;;6.60;6.20;;;;;;;26.43;100.00;98199.52;100937;1291;602852;-52
2023/08/07 09:04:45;;;;;;;7.50;6.90;;;;;;;26.26;100.00;98214.73;103892;1266;60166;-51
2023/08/07 09:07:13;;;;;;;7.20;6.70;;;;;;;26.12;100.00;98226.54;104029;1266;59026;-51
2023/08/07 09:09:41;;;;;;;5.20;4.90;;;;;;;25.98;100.00;98235.80;104206;1271;71967;-50
2023/08/07 09:12:09;;;;;;;4.90;4.60;;;;;;;25.89;100.00;98228.48;103865;1269;66793;-50
2023/08/07 09:14:36;;;;;;;4.10;3.80;;;;;;;25.82;100.00;98228.67;103932;1271;71314;-50
2023/08/07 09:17:04;;;;;;;9.30;4.30;;;;;;;25.77;100.00;98227.09;104097;1264;165550;-49
2023/08/07 09:19:31;;;;;;;4.80;2.20;;;;;;;25.75;100.00;98226.12;104134;1264;61031;-50
2023/08/07 09:21:59;;;;;;;3.10;1.90;;;;;;;25.74;100.00;98220.05;104143;1264;71267;-52
2023/08/07 09:24:26;;;;;;;3.50;2.50;;;;;;;25.74;100.00;98219.67;104326;1264;65948;-52
2023/08/07 09:26:54;;;;;;;4.90;1.80;;;;;;;25.74;100.00;98225.31;104304;1266;72777;-53
2023/08/07 09:29:21;;;;;;;2.00;1.80;;;;;;;25.72;100.00;98232.20;104126;1263;61690;-53
2023/08/07 09:31:49;;;;;;;2.40;1.60;;;;;;;25.70;100.00;98237.48;104235;1268;59651;-49
2023/08/07 09:34:19;;;;;;;3.40;1.60;;;;;;;25.68;100.00;98248.60;104177;1263;74233;-51
2023/08/07 09:36:47;;;;;;;2.10;1.60;;;;;;;25.59;100.00;98261.98;104356;1263;65556;-50
2023/08/07 09:39:14;;;;;;;4.50;1.50;;;;;;;25.50;100.00;98264.91;104295;1264;72817;-54
2023/08/07 09:41:42;;;;;;;2.60;1.90;;;;;;;25.37;100.00;98262.59;104281;1268;59761;-49
2023/08/07 09:44:10;;;;;;;1.80;1.70;;;;;;;25.20;100.00;98255.33;104341;1263;60110;-52
2023/08/07 09:46:44;;;;;;;1.80;1.40;;;;;;;25.06;100.00;98258.46;104194;1265;73019;-50
2023/08/07 09:49:12;;;;;;;1.50;1.40;;;;;;;24.99;100.00;98268.70;105338;1265;66766;-49
2023/08/07 09:51:43;;;;;;;1.50;1.40;;;;;;;24.93;100.00;98276.58;104425;1263;73802;-52
2023/08/07 09:54:11;;;;;;;2.40;1.30;;;;;;;24.87;100.00;98277.30;104354;1263;61659;-50
2023/08/07 09:56:42;;;;;;;3.30;1.40;;;;;;;24.81;100.00;98290.05;104907;1262;59851;-50
2023/08/07 09:59:09;;;;;;;3.60;2.40;;;;;;;24.73;100.00;98291.80;104443;1262;71830;-51
2023/08/07 10:01:38;;;;;;;1.90;1.60;;;;;;;24.65;100.00;98294.95;104183;1268;65810;-50
2023/08/07 10:04:06;;;;;;;1.80;1.70;;;;;;;24.55;100.00;98294.35;104456;1262;72478;-50
2023/08/07 10:06:34;;;;;;;4.20;1.90;;;;;;;24.45;100.00;98298.74;104953;1262;59740;-51
2023/08/07 10:09:01;;;;;;;1.90;1.60;;;;;;;24.37;100.00;98306.41;104432;1262;59566;-50
2023/08/07 10:11:28;;;;;;;3.60;1.60;;;;;;;24.31;100.00;98300.98;104128;1266;72311;-51
2023/08/07 10:13:57;;;;;;;3.10;1.40;;;;;;;24.28;100.00;98294.14;104456;1267;66436;-50
2023/08/07 10:16:26;;;;;;;2.00;1.50;;;;;;;24.25;100.00;98301.50;104374;1268;73204;-49
2023/08/07 10:18:54;;;;;;;1.50;1.30;;;;;;;24.23;100.00;98314.85;104685;1262;60412;-51
2023/08/07 10:21:22;;;;;;;1.50;1.40;;;;;;;24.22;100.00;98319.88;104997;1256;60073;-50
2023/08/07 10:23:51;;;;;;;2.20;1.10;;;;;;;24.23;100.00;98325.30;104909;1256;71784;-49
2023/08/07 10:26:19;;;;;;;1.30;1.20;;;;;;;24.22;100.00;98327.27;105057;1257;67173;-53
2023/08/07 10:28:46;;;;;;;1.20;1.00;;;;;;;24.19;100.00;98334.60;104724;1256;72658;-49
2023/08/07 10:31:13;;;;;;;1.40;1.00;;;;;;;24.14;100.00;98341.38;104972;1254;59667;-50
2023/08/07 10:33:41;;;;;;;1.00;0.90;;;;;;;24.09;100.00;98353.70;105086;1259;60310;-49
2023/08/07 10:36:10;;;;;;;1.80;0.90;;;;;;;24.03;100.00;98357.39;104906;1258;73703;-51
2023/08/07 10:38:37;;;;;;;1.70;0.90;;;;;;;23.97;100.00;98363.29;106332;1256;66728;-50
2023/08/07 10:41:09;;;;;;;0.90;0.90;;;;;;;23.93;100.00;98369.21;104852;1258;72837;-50
2023/08/07 10:43:41;;;;;;;2.10;0.80;;;;;;;23.87;100.00;98371.60;104938;1257;60406;-50
2023/08/07 10:46:12;;;;;;;0.70;0.70;;;;;;;23.81;100.00;98377.05;104906;1257;59685;-49
2023/08/07 10:48:41;;;;;;;0.60;0.60;;;;;;;23.73;100.00;98378.05;105277;1256;73063;-52
2023/08/07 10:51:09;;;;;;;0.60;0.60;;;;;;;23.65;100.00;98381.23;105007;1258;65532;-54
2023/08/07 10:53:40;;;;;;;0.70;0.60;;;;;;;23.61;100.00;98377.79;104672;1257;71161;-51
2023/08/07 10:56:10;;;;;;;0.60;0.50;;;;;;;23.55;100.00;98384.30;105435;1255;59760;-47
2023/08/07 10:58:38;;;;;;;0.70;0.50;;;;;;;23.49;100.00;98386.69;104956;1256;60664;-52
2023/08/07 11:01:24;;;;;;;0.90;0.50;;;;;;;23.45;100.00;98389.20;105116;1258;73047;-49
2023/08/07 11:03:53;;;;;;;1.00;0.50;;;;;;;23.42;100.00;98388.13;104951;1260;67371;-49
2023/08/07 11:06:33;;;;;;;0.70;0.50;;;;;;;23.43;100.00;98385.79;105505;1257;71774;-48
2023/08/07 11:09:05;;;;;;;0.60;0.50;;;;;;;23.51;100.00;98394.96;105213;1260;60500;-48
2023/08/07 11:11:40;;;;;;;0.50;0.50;;;;;;;23.60;100.00;98398.78;105593;1259;60651;-47
2023/08/07 11:14:13;;;;;;;0.50;0.50;;;;;;;23.72;100.00;98406.23;105365;1256;73422;-52
2023/08/07 11:16:40;;;;;;;0.50;0.40;;;;;;;23.84;100.00;98412.44;104682;1261;68052;-49
2023/08/07 11:19:08;;;;;;;1.60;0.40;;;;;;;23.95;100.00;98419.47;104773;1259;73014;-49
2023/08/07 11:21:37;;;;;;;0.40;0.40;;;;;;;24.07;100.00;98421.84;104967;1259;59891;-52
2023/08/07 11:24:04;;;;;;;0.30;0.30;;;;;;;24.21;100.00;98431.59;104687;1258;60451;-48
2023/08/07 11:26:32;;;;;;;0.30;0.30;;;;;;;24.35;100.00;98433.69;104800;1261;73894;-48
2023/08/07 11:28:59;;;;;;;0.40;0.40;;;;;;;24.49;100.00;98439.05;104752;1257;66319;-51